createdAt,value
2023-04-20T00:00:39.078Z,99.90
2023-04-20T00:03:05.918Z,99.90
2023-04-20T00:05:33.018Z,99.90
2023-04-20T00:08:00.039Z,99.90
2023-04-20T00:10:27.008Z,99.90
2023-04-20T00:12:53.850Z,99.90
2023-04-20T00:15:20.594Z,99.90
2023-04-20T00:17:48.750Z,99.90
2023-04-20T00:20:15.627Z,99.90
2023-04-20T00:22:42.429Z,99.90
2023-04-20T00:25:09.660Z,99.90
2023-04-20T00:27:36.458Z,99.90
2023-04-20T00:30:03.436Z,99.90
2023-04-20T00:32:30.424Z,99.90
2023-04-20T00:34:57.168Z,99.90
2023-04-20T00:37:25.694Z,99.90
2023-04-20T00:39:52.702Z,99.90
2023-04-20T00:42:19.485Z,99.90
2023-04-20T00:44:46.198Z,99.90
2023-04-20T00:47:13.001Z,99.90
2023-04-20T00:49:39.845Z,99.90
2023-04-20T00:52:06.707Z,99.90
2023-04-20T00:54:33.476Z,99.90
2023-04-20T00:57:00.514Z,99.90
2023-04-20T00:59:27.333Z,99.90
2023-04-20T01:01:54.241Z,99.90
2023-04-20T01:04:21.133Z,99.90
2023-04-20T01:06:48.081Z,99.90
2023-04-20T01:09:15.257Z,99.90
2023-04-20T01:11:42.298Z,99.90
2023-04-20T01:14:09.025Z,99.90
2023-04-20T01:16:36.817Z,99.90
2023-04-20T01:19:03.916Z,99.90
2023-04-20T01:21:31.160Z,99.90
2023-04-20T01:23:58.002Z,99.90
2023-04-20T01:26:25.821Z,99.90
2023-04-20T01:28:52.687Z,99.90
2023-04-20T01:31:19.985Z,99.90
2023-04-20T01:33:46.984Z,99.90
2023-04-20T01:36:13.892Z,99.90
2023-04-20T01:38:41.253Z,99.90
2023-04-20T01:41:08.807Z,99.90
2023-04-20T01:43:36.045Z,99.90
2023-04-20T01:46:02.945Z,99.90
2023-04-20T01:48:29.724Z,99.90
2023-04-20T01:50:56.513Z,99.90
2023-04-20T01:53:23.430Z,99.90
2023-04-20T01:55:50.414Z,99.90
2023-04-20T01:58:17.314Z,99.90
2023-04-20T02:00:44.555Z,99.90
2023-04-20T02:03:11.787Z,99.90
2023-04-20T02:05:38.619Z,99.90
2023-04-20T02:08:05.677Z,99.90
2023-04-20T02:10:32.469Z,99.90
2023-04-20T02:12:59.378Z,99.90
2023-04-20T02:15:26.260Z,99.90
2023-04-20T02:17:53.217Z,99.90
2023-04-20T02:20:20.465Z,99.90
2023-04-20T02:22:47.266Z,99.90
2023-04-20T02:25:14.194Z,99.90
2023-04-20T02:27:41.167Z,99.90
2023-04-20T02:30:08.426Z,99.90
2023-04-20T02:32:35.384Z,99.90
2023-04-20T02:35:04.091Z,99.90
2023-04-20T02:37:31.112Z,99.90
2023-04-20T02:39:57.977Z,99.90
2023-04-20T02:42:24.780Z,99.90
2023-04-20T02:44:52.816Z,99.90
2023-04-20T02:47:19.834Z,99.90
2023-04-20T02:49:47.525Z,99.90
2023-04-20T02:52:14.639Z,99.90
2023-04-20T02:54:41.550Z,99.90
2023-04-20T02:57:08.471Z,99.90
2023-04-20T02:59:35.218Z,99.90
2023-04-20T03:02:02.111Z,99.90
2023-04-20T03:04:31.006Z,99.90
2023-04-20T03:06:58.686Z,99.90
2023-04-20T03:09:25.493Z,99.90
2023-04-20T03:11:52.298Z,99.90
2023-04-20T03:14:19.012Z,99.90
2023-04-20T03:16:46.319Z,99.90
2023-04-20T03:19:13.662Z,99.90
2023-04-20T03:21:40.762Z,99.90
2023-04-20T03:24:07.814Z,99.90
2023-04-20T03:26:34.548Z,99.90
2023-04-20T03:29:01.308Z,99.90
2023-04-20T03:31:28.135Z,99.90
2023-04-20T03:33:54.934Z,99.90
2023-04-20T03:36:21.807Z,99.90
2023-04-20T03:38:48.631Z,99.90
2023-04-20T03:41:15.414Z,99.90
2023-04-20T03:43:42.216Z,99.90
2023-04-20T03:46:09.066Z,99.90
2023-04-20T03:48:35.913Z,99.90
2023-04-20T03:51:02.712Z,99.90
2023-04-20T03:53:29.610Z,99.90
2023-04-20T03:55:56.613Z,99.90
2023-04-20T03:58:23.380Z,99.90
2023-04-20T04:00:50.200Z,99.90
2023-04-20T04:03:17.245Z,99.90
2023-04-20T04:05:44.261Z,99.90
2023-04-20T04:08:11.036Z,99.90
2023-04-20T04:10:37.856Z,99.90
2023-04-20T04:13:04.646Z,99.90
2023-04-20T04:15:32.037Z,99.90
2023-04-20T04:17:58.946Z,99.90
2023-04-20T04:20:25.847Z,99.90
2023-04-20T04:22:52.657Z,99.90
2023-04-20T04:25:20.253Z,99.90
2023-04-20T04:27:47.104Z,99.90
2023-04-20T04:30:14.411Z,99.90
2023-04-20T04:32:41.905Z,99.90
2023-04-20T04:35:10.206Z,99.90
2023-04-20T04:37:37.197Z,99.90
2023-04-20T04:40:07.320Z,99.90
2023-04-20T04:42:35.153Z,99.90
2023-04-20T04:45:04.601Z,96.90
2023-04-20T04:47:35.377Z,93.40
2023-04-20T04:50:06.389Z,93.00
2023-04-20T04:52:33.333Z,92.00
2023-04-20T04:55:00.214Z,89.50
2023-04-20T04:57:27.353Z,85.90
2023-04-20T04:59:54.199Z,79.50
2023-04-20T05:02:21.112Z,76.00
2023-04-20T05:04:48.106Z,71.50
2023-04-20T05:07:15.288Z,68.30
2023-04-20T05:09:42.064Z,66.70
2023-04-20T05:12:08.909Z,65.70
2023-04-20T05:14:35.644Z,65.40
2023-04-20T05:17:02.513Z,63.50
2023-04-20T05:19:29.720Z,62.80
2023-04-20T05:21:56.596Z,60.10
2023-04-20T05:24:23.390Z,58.60
2023-04-20T05:26:50.188Z,58.30
2023-04-20T05:29:17.237Z,56.90
2023-04-20T05:31:45.266Z,55.20
2023-04-20T05:34:12.244Z,54.30
2023-04-20T05:36:39.942Z,54.70
2023-04-20T05:39:06.840Z,53.20
2023-04-20T05:41:33.659Z,53.70
2023-04-20T05:44:00.511Z,54.00
2023-04-20T05:46:29.257Z,53.30
2023-04-20T05:48:56.228Z,52.10
2023-04-20T05:51:23.309Z,53.00
2023-04-20T05:53:50.173Z,54.30
2023-04-20T05:56:18.582Z,52.80
2023-04-20T05:58:45.400Z,52.60
2023-04-20T06:01:12.206Z,52.10
2023-04-20T06:03:39.124Z,51.60
2023-04-20T06:06:06.809Z,51.10
2023-04-20T06:08:33.647Z,51.30
2023-04-20T06:11:00.458Z,50.50
2023-04-20T06:13:27.226Z,49.60
2023-04-20T06:15:54.334Z,50.90
2023-04-20T06:18:21.420Z,49.30
2023-04-20T06:20:48.411Z,49.30
2023-04-20T06:23:15.341Z,48.80
2023-04-20T06:25:42.346Z,47.50
2023-04-20T06:28:09.101Z,46.40
2023-04-20T06:30:36.198Z,45.10
2023-04-20T06:33:03.465Z,44.50
2023-04-20T06:35:30.510Z,43.70
2023-04-20T06:37:57.748Z,42.10
2023-04-20T06:40:27.889Z,42.00
2023-04-20T06:42:54.774Z,41.40
2023-04-20T06:45:21.509Z,41.20
2023-04-20T06:47:48.353Z,40.20
2023-04-20T06:50:15.193Z,40.50
2023-04-20T06:52:42.076Z,40.90
2023-04-20T06:55:09.482Z,39.80
2023-04-20T06:57:38.464Z,39.30
2023-04-20T07:00:09.105Z,39.40
2023-04-20T07:02:43.410Z,39.10
2023-04-20T07:05:11.073Z,39.10
2023-04-20T07:07:38.336Z,38.70
2023-04-20T07:10:06.500Z,38.20
2023-04-20T07:12:35.291Z,38.10
2023-04-20T07:15:05.653Z,38.00
2023-04-20T07:17:32.480Z,38.60
2023-04-20T07:20:05.923Z,38.10
2023-04-20T07:22:35.110Z,36.80
2023-04-20T07:25:05.496Z,36.90
2023-04-20T07:27:35.285Z,37.40
2023-04-20T07:30:02.161Z,35.90
2023-04-20T07:32:28.993Z,37.20
2023-04-20T07:34:55.833Z,37.80
2023-04-20T07:37:23.064Z,36.90
2023-04-20T07:39:52.875Z,36.30
2023-04-20T07:42:21.276Z,36.80
2023-04-20T07:44:48.564Z,36.50
2023-04-20T07:47:15.402Z,36.90
2023-04-20T07:49:42.787Z,38.20
2023-04-20T07:52:16.399Z,37.30
2023-04-20T07:54:45.282Z,36.40
2023-04-20T07:57:12.138Z,38.00
2023-04-20T07:59:40.415Z,37.50
2023-04-20T08:02:07.414Z,37.60
2023-04-20T08:04:36.097Z,36.90
2023-04-20T08:07:03.247Z,36.00
2023-04-20T08:09:30.100Z,36.00
2023-04-20T08:11:56.906Z,36.10
2023-04-20T08:14:23.696Z,35.70
2023-04-20T08:16:50.603Z,35.10
2023-04-20T08:19:17.392Z,35.20
2023-04-20T08:21:44.167Z,36.40
2023-04-20T08:24:10.952Z,35.90
2023-04-20T08:26:38.682Z,34.30
2023-04-20T08:29:05.710Z,34.30
2023-04-20T08:31:32.851Z,36.40
2023-04-20T08:33:59.674Z,37.60
2023-04-20T08:36:26.782Z,36.40
2023-04-20T08:39:19.618Z,36.70
2023-04-20T08:41:48.048Z,37.30
2023-04-20T08:44:15.120Z,37.00
2023-04-20T08:46:42.289Z,35.80
2023-04-20T08:49:12.024Z,35.00
2023-04-20T08:51:40.123Z,37.40
2023-04-20T08:54:07.059Z,37.30
2023-04-20T08:56:37.852Z,37.50
2023-04-20T08:59:05.554Z,37.00
2023-04-20T09:01:35.503Z,37.40
2023-04-20T09:04:03.601Z,36.50
2023-04-20T09:06:31.555Z,36.20
2023-04-20T09:08:58.318Z,37.50
2023-04-20T09:11:26.167Z,37.50
2023-04-20T09:14:00.483Z,37.30
2023-04-20T09:16:27.438Z,36.10
2023-04-20T09:18:55.625Z,36.60
2023-04-20T09:21:23.202Z,37.00
2023-04-20T09:23:56.889Z,36.00
2023-04-20T09:26:23.729Z,36.00
2023-04-20T09:28:50.553Z,37.50
2023-04-20T09:31:18.991Z,37.60
2023-04-20T09:33:45.865Z,37.50
2023-04-20T09:36:13.671Z,37.30
2023-04-20T09:38:40.518Z,37.20
2023-04-20T09:41:07.266Z,36.80
2023-04-20T09:43:34.024Z,36.30
2023-04-20T09:46:01.086Z,38.10
2023-04-20T09:48:29.154Z,37.90
2023-04-20T09:50:57.665Z,38.40
2023-04-20T09:53:24.505Z,38.30
2023-04-20T09:55:54.188Z,38.00
2023-04-20T09:58:21.660Z,38.10
2023-04-20T10:00:49.173Z,38.30
2023-04-20T10:03:19.701Z,38.50
2023-04-20T10:05:47.003Z,38.30
2023-04-20T10:08:13.795Z,38.90
2023-04-20T10:10:48.437Z,39.50
2023-04-20T10:13:15.571Z,41.30
2023-04-20T10:15:42.529Z,41.40
2023-04-20T10:18:35.785Z,42.30
2023-04-20T10:21:09.540Z,42.00
2023-04-20T10:23:46.794Z,43.30
2023-04-20T10:26:13.603Z,45.70
2023-04-20T10:28:44.923Z,46.40
2023-04-20T10:31:16.777Z,47.80
2023-04-20T10:33:51.055Z,46.20
2023-04-20T10:36:31.468Z,48.00
2023-04-20T10:38:58.580Z,48.60
2023-04-20T10:41:25.459Z,48.30
2023-04-20T10:43:52.303Z,48.60
2023-04-20T10:46:25.591Z,48.90
2023-04-20T10:49:02.110Z,49.40
2023-04-20T10:51:28.992Z,51.60
2023-04-20T10:54:08.563Z,51.90
2023-04-20T10:56:39.015Z,50.80
2023-04-20T10:59:13.345Z,51.80
2023-04-20T11:01:41.038Z,53.70
2023-04-20T11:04:13.116Z,54.00
2023-04-20T11:06:40.660Z,50.10
2023-04-20T11:09:24.775Z,50.70
2023-04-20T11:12:14.966Z,53.80
2023-04-20T11:14:55.384Z,51.90
2023-04-20T11:17:35.371Z,53.40
2023-04-20T11:20:11.014Z,52.60
2023-04-20T11:22:41.176Z,52.10
2023-04-20T11:25:09.471Z,52.80
2023-04-20T11:27:36.571Z,51.20
2023-04-20T11:30:07.970Z,52.90
2023-04-20T11:32:35.376Z,52.70
2023-04-20T11:35:07.546Z,50.60
2023-04-20T11:37:45.822Z,53.40
2023-04-20T11:40:13.448Z,48.70
2023-04-20T11:42:40.323Z,50.40
2023-04-20T11:45:08.413Z,49.40
2023-04-20T11:47:35.262Z,51.60
2023-04-20T11:50:02.185Z,50.60
2023-04-20T11:52:29.042Z,48.10
2023-04-20T11:54:55.867Z,47.20
2023-04-20T11:57:23.946Z,47.80
2023-04-20T11:59:51.224Z,49.70
2023-04-20T12:02:18.505Z,47.80
2023-04-20T12:04:45.560Z,49.30
2023-04-20T12:07:12.475Z,49.10
2023-04-20T12:09:40.395Z,48.70
2023-04-20T12:12:08.644Z,48.00
2023-04-20T12:14:35.586Z,48.10
2023-04-20T12:17:03.852Z,47.60
2023-04-20T12:19:31.245Z,45.20
2023-04-20T12:21:58.050Z,46.70
2023-04-20T12:24:24.899Z,46.10
2023-04-20T12:26:51.668Z,46.80
2023-04-20T12:29:18.678Z,47.50
2023-04-20T12:31:45.716Z,45.10
2023-04-20T12:34:12.566Z,47.20
2023-04-20T12:36:39.392Z,46.00
2023-04-20T12:39:06.215Z,45.70
2023-04-20T12:41:33.448Z,46.80
2023-04-20T12:44:01.206Z,45.40
2023-04-20T12:46:29.617Z,46.00
2023-04-20T12:48:56.534Z,46.20
2023-04-20T12:51:23.340Z,47.70
2023-04-20T12:53:50.297Z,45.30
2023-04-20T12:56:17.085Z,45.60
2023-04-20T12:58:44.228Z,45.50
2023-04-20T13:01:11.184Z,46.80
2023-04-20T13:03:38.224Z,46.20
2023-04-20T13:06:06.075Z,44.80
2023-04-20T13:08:33.053Z,46.40
2023-04-20T13:10:59.782Z,45.50
2023-04-20T13:13:26.855Z,45.90
2023-04-20T13:15:54.523Z,46.40
2023-04-20T13:18:23.715Z,46.10
2023-04-20T13:20:50.703Z,45.60
2023-04-20T13:23:18.074Z,45.90
2023-04-20T13:25:44.838Z,43.40
2023-04-20T13:28:14.480Z,44.30
2023-04-20T13:30:41.622Z,46.40
2023-04-20T13:33:08.429Z,45.90
2023-04-20T13:35:35.265Z,45.60
2023-04-20T13:38:03.882Z,45.80
2023-04-20T13:40:30.772Z,44.70
2023-04-20T13:42:57.598Z,43.50
2023-04-20T13:45:24.901Z,45.00
2023-04-20T13:47:51.829Z,45.50
2023-04-20T13:50:18.687Z,45.50
2023-04-20T13:52:45.548Z,44.60
2023-04-20T13:55:12.438Z,46.10
2023-04-20T13:57:39.171Z,44.20
2023-04-20T14:00:07.481Z,46.10
2023-04-20T14:02:34.821Z,46.50
2023-04-20T14:05:03.952Z,45.90
2023-04-20T14:07:31.301Z,45.50
2023-04-20T14:09:59.852Z,46.90
2023-04-20T14:12:27.325Z,46.70
2023-04-20T14:14:57.767Z,45.40
2023-04-20T14:17:24.760Z,45.30
2023-04-20T14:19:51.557Z,46.70
2023-04-20T14:22:18.340Z,47.50
2023-04-20T14:24:48.676Z,47.60
2023-04-20T14:27:15.551Z,47.90
2023-04-20T14:29:42.452Z,47.30
2023-04-20T14:32:09.284Z,48.10
2023-04-20T14:34:36.091Z,47.50
2023-04-20T14:37:02.939Z,46.70
2023-04-20T14:39:29.711Z,46.60
2023-04-20T14:41:56.495Z,47.00
2023-04-20T14:44:23.322Z,47.20
2023-04-20T14:46:50.381Z,46.90
2023-04-20T14:49:17.173Z,47.10
2023-04-20T14:51:43.907Z,47.70
2023-04-20T14:54:11.019Z,47.60
2023-04-20T14:56:37.896Z,48.50
2023-04-20T14:59:04.903Z,48.30
2023-04-20T15:01:31.773Z,48.20
2023-04-20T15:03:58.765Z,47.90
2023-04-20T15:06:25.791Z,47.20
2023-04-20T15:08:56.361Z,47.70
2023-04-20T15:11:23.093Z,46.60
2023-04-20T15:13:51.193Z,46.50
2023-04-20T15:16:18.081Z,47.80
2023-04-20T15:18:45.036Z,47.40
2023-04-20T15:21:11.940Z,47.30
2023-04-20T15:23:38.691Z,47.50
2023-04-20T15:26:06.841Z,48.00
2023-04-20T15:28:33.596Z,49.10
2023-04-20T15:31:00.405Z,48.90
2023-04-20T15:33:27.487Z,49.30
2023-04-20T15:35:54.299Z,49.20
2023-04-20T15:38:21.077Z,49.30
2023-04-20T15:40:47.906Z,48.20
2023-04-20T15:43:14.759Z,48.90
2023-04-20T15:45:43.503Z,49.50
2023-04-20T15:48:11.524Z,49.30
2023-04-20T15:50:38.346Z,50.30
2023-04-20T15:53:05.058Z,50.10
2023-04-20T15:55:34.640Z,50.50
2023-04-20T15:58:01.636Z,50.50
2023-04-20T16:00:28.634Z,50.30
2023-04-20T16:02:55.651Z,49.90
2023-04-20T16:05:23.011Z,50.40
2023-04-20T16:07:49.776Z,48.90
2023-04-20T16:10:16.649Z,49.10
2023-04-20T16:12:43.555Z,49.20
2023-04-20T16:15:10.465Z,49.70
2023-04-20T16:17:37.310Z,50.20
2023-04-20T16:20:05.359Z,50.40
2023-04-20T16:22:32.172Z,50.80
2023-04-20T16:24:58.997Z,51.10
2023-04-20T16:27:26.810Z,51.50
2023-04-20T16:29:53.671Z,51.90
2023-04-20T16:32:20.560Z,51.90
2023-04-20T16:34:47.420Z,51.90
2023-04-20T16:37:14.198Z,51.20
2023-04-20T16:39:40.983Z,51.20
2023-04-20T16:42:07.777Z,51.80
2023-04-20T16:44:34.620Z,51.80
2023-04-20T16:47:02.022Z,51.40
2023-04-20T16:49:29.040Z,51.50
2023-04-20T16:51:56.357Z,51.80
2023-04-20T16:54:23.154Z,51.80
2023-04-20T16:56:49.965Z,52.30
2023-04-20T16:59:16.690Z,52.80
2023-04-20T17:01:43.477Z,52.00
2023-04-20T17:04:10.989Z,52.10
2023-04-20T17:06:37.864Z,52.40
2023-04-20T17:09:07.143Z,53.20
2023-04-20T17:11:38.731Z,53.10
2023-04-20T17:14:06.459Z,53.60
2023-04-20T17:16:33.407Z,53.70
2023-04-20T17:19:00.625Z,54.20
2023-04-20T17:21:27.766Z,54.70
2023-04-20T17:23:55.031Z,54.90
2023-04-20T17:26:21.932Z,55.30
2023-04-20T17:28:48.839Z,55.80
2023-04-20T17:31:15.637Z,55.70
2023-04-20T17:33:43.489Z,56.30
2023-04-20T17:36:10.452Z,56.80
2023-04-20T17:38:38.468Z,56.90
2023-04-20T17:41:05.499Z,56.70
2023-04-20T17:43:32.259Z,57.50
2023-04-20T17:45:59.085Z,57.50
2023-04-20T17:48:25.930Z,57.60
2023-04-20T17:50:52.670Z,57.70
2023-04-20T17:53:19.480Z,58.30
2023-04-20T17:55:46.359Z,58.70
2023-04-20T17:58:13.306Z,58.80
2023-04-20T18:00:40.382Z,59.10
2023-04-20T18:03:07.342Z,59.20
2023-04-20T18:05:34.253Z,59.40
2023-04-20T18:08:01.091Z,59.80
2023-04-20T18:10:28.103Z,60.30
2023-04-20T18:12:55.485Z,60.60
2023-04-20T18:15:22.339Z,60.40
2023-04-20T18:17:49.459Z,60.50
2023-04-20T18:20:16.259Z,60.80
2023-04-20T18:22:43.087Z,61.20
2023-04-20T18:25:09.959Z,61.50
2023-04-20T18:27:37.402Z,61.60
2023-04-20T18:30:04.707Z,62.20
2023-04-20T18:32:31.649Z,62.30
2023-04-20T18:35:00.358Z,63.20
2023-04-20T18:37:27.256Z,63.10
2023-04-20T18:39:54.070Z,63.40
2023-04-20T18:42:20.944Z,63.70
2023-04-20T18:44:49.711Z,64.30
2023-04-20T18:47:18.641Z,64.90
2023-04-20T18:49:45.535Z,65.20
2023-04-20T18:52:12.453Z,65.50
2023-04-20T18:54:39.430Z,65.80
2023-04-20T18:57:06.589Z,66.20
2023-04-20T18:59:33.461Z,66.50
2023-04-20T19:02:00.353Z,66.60
2023-04-20T19:04:27.631Z,67.00
2023-04-20T19:06:54.431Z,67.80
2023-04-20T19:09:21.293Z,68.20
2023-04-20T19:11:48.129Z,68.50
2023-04-20T19:14:14.924Z,68.90
2023-04-20T19:16:41.795Z,69.70
2023-04-20T19:19:09.698Z,70.10
2023-04-20T19:21:36.486Z,70.40
2023-04-20T19:24:03.401Z,71.80
2023-04-20T19:26:30.151Z,72.50
2023-04-20T19:28:58.207Z,73.50
2023-04-20T19:31:26.432Z,74.00
2023-04-20T19:33:54.333Z,74.70
2023-04-20T19:36:23.234Z,75.50
2023-04-20T19:38:50.151Z,76.30
2023-04-20T19:41:16.946Z,77.50
2023-04-20T19:43:43.802Z,78.80
2023-04-20T19:46:10.724Z,80.00
2023-04-20T19:48:37.672Z,80.50
2023-04-20T19:51:05.811Z,81.60
2023-04-20T19:53:33.051Z,82.70
2023-04-20T19:55:59.801Z,84.60
2023-04-20T19:58:26.592Z,87.00
2023-04-20T20:00:53.592Z,88.50
2023-04-20T20:03:20.810Z,90.10
2023-04-20T20:05:47.664Z,90.80
2023-04-20T20:08:14.517Z,91.80
2023-04-20T20:10:41.413Z,92.80
2023-04-20T20:13:08.162Z,93.40
2023-04-20T20:15:35.036Z,94.40
2023-04-20T20:18:01.972Z,95.30
2023-04-20T20:20:30.567Z,96.20
2023-04-20T20:22:57.432Z,96.60
2023-04-20T20:25:24.397Z,96.90
2023-04-20T20:27:51.383Z,97.20
2023-04-20T20:30:18.511Z,97.70
2023-04-20T20:32:45.481Z,98.10
2023-04-20T20:35:13.176Z,99.00
2023-04-20T20:37:45.311Z,99.70
2023-04-20T20:40:14.849Z,99.90
2023-04-20T20:42:45.312Z,99.90
2023-04-20T20:45:15.897Z,99.90
2023-04-20T20:47:44.116Z,99.90
2023-04-20T20:50:14.404Z,99.90
2023-04-20T20:52:41.337Z,99.90
2023-04-20T20:55:08.926Z,99.90
2023-04-20T20:57:35.967Z,99.90
2023-04-20T21:00:07.952Z,99.90
2023-04-20T21:02:34.917Z,99.90
2023-04-20T21:05:02.064Z,99.90
2023-04-20T21:07:28.841Z,99.90
2023-04-20T21:09:55.650Z,99.90
2023-04-20T21:12:22.614Z,99.90
2023-04-20T21:14:51.349Z,99.90
2023-04-20T21:17:18.739Z,99.90
2023-04-20T21:19:45.644Z,99.90
2023-04-20T21:22:12.393Z,99.90
2023-04-20T21:24:39.173Z,99.90
2023-04-20T21:27:05.918Z,99.90
2023-04-20T21:29:32.726Z,99.90
2023-04-20T21:31:59.455Z,99.90
2023-04-20T21:34:26.350Z,99.90
2023-04-20T21:36:53.125Z,99.90
2023-04-20T21:39:20.043Z,99.90
2023-04-20T21:41:47.041Z,99.90
2023-04-20T21:44:13.792Z,99.90
2023-04-20T21:46:40.701Z,99.90
2023-04-20T21:49:07.745Z,99.90
2023-04-20T21:51:34.494Z,99.90
2023-04-20T21:54:01.448Z,99.90
2023-04-20T21:56:28.222Z,99.90
2023-04-20T21:58:54.995Z,99.90
2023-04-20T22:01:21.776Z,99.90
2023-04-20T22:03:48.680Z,99.90
2023-04-20T22:06:15.571Z,99.90
2023-04-20T22:08:42.324Z,99.90
2023-04-20T22:11:09.346Z,99.90
2023-04-20T22:13:36.263Z,99.90
2023-04-20T22:16:03.998Z,99.90
2023-04-20T22:18:30.922Z,99.90
2023-04-20T22:20:57.792Z,99.90
2023-04-20T22:23:24.624Z,99.90
2023-04-20T22:25:51.451Z,99.90
2023-04-20T22:28:18.200Z,99.90
2023-04-20T22:30:44.984Z,99.90
2023-04-20T22:33:11.782Z,99.90
2023-04-20T22:35:38.558Z,99.90
2023-04-20T22:38:05.665Z,99.90
2023-04-20T22:40:32.559Z,99.90
2023-04-20T22:42:59.306Z,99.90
2023-04-20T22:45:26.347Z,99.90
2023-04-20T22:47:55.759Z,99.90
2023-04-20T22:50:22.691Z,99.90
2023-04-20T22:52:50.494Z,99.90
2023-04-20T22:55:17.468Z,99.90
2023-04-20T22:57:44.311Z,99.90
2023-04-20T23:00:13.813Z,99.90
2023-04-20T23:02:41.162Z,99.90
2023-04-20T23:05:08.801Z,99.90
2023-04-20T23:07:35.825Z,99.90
2023-04-20T23:10:02.850Z,99.90
2023-04-20T23:12:29.674Z,99.90
2023-04-20T23:15:00.404Z,99.90
2023-04-20T23:17:28.311Z,99.90
2023-04-20T23:19:55.464Z,99.90
2023-04-20T23:22:22.277Z,99.90
2023-04-20T23:24:49.142Z,99.90
2023-04-20T23:27:15.859Z,99.90
2023-04-20T23:29:42.958Z,99.90
2023-04-20T23:32:09.775Z,99.90
2023-04-20T23:34:36.823Z,99.90
2023-04-20T23:37:03.595Z,99.90
2023-04-20T23:39:30.399Z,99.90
2023-04-20T23:41:57.914Z,99.90
2023-04-20T23:44:24.814Z,99.90
2023-04-20T23:46:51.631Z,99.90
2023-04-20T23:49:18.542Z,99.90
2023-04-20T23:51:45.622Z,99.90
2023-04-20T23:54:12.489Z,99.90
2023-04-20T23:56:39.360Z,99.90
2023-04-20T23:59:06.208Z,99.90
